MSC Ludovica — HPAF — position and weather

sailwx.info

Track history (hours):
 
Tides and Currents Weather Stations Pressure Air Temp Water Temp Dewpoint Dewpoint Depression Visibility Wind Speed Wind Dir Waves Ship Positions

MSC Ludovica

Last reported at 2014-Jul-29 02:29 UTC. Time now 2014-Jul-29 02:44 UTC.
Position N 39°47' E 023°36'.

Length 301 m; draft 9.3 m.

Type: Ship. MMSI: 351248000.

Date/timePositionNaut miles runAvg speedWind from/ knotsBaromVisibWave heightAir tempDewpointWater temp
2014-Jul-29 02:29N 39°47' E 023°36'15 0.5
2014-Jul-27 23:07N 39°42' E 023°54'1220.1
2014-Jul-27 22:32N 39°38' E 024°09'1919.9
2014-Jul-27 21:33N 39°30' E 024°31'2020.2
2014-Jul-27 20:33N 39°21' E 024°55'2720.1
2014-Jul-27 19:13N 39°09' E 025°26'1519.8
2014-Jul-27 18:26N 39°02' E 025°43'  
2014-Jul-25 12:06N 38°45' E 025°54'1720.9
2014-Jul-25 11:17N 38°45' E 025°32'9619.9
2014-Jul-25 06:29N 37°35' E 024°09'1920.6
2014-Jul-25 05:33N 37°37' E 023°45'1818.2
2014-Jul-25 04:33N 37°53' E 023°36'4 0.5
2014-Jul-24 20:33N 37°57' E 023°35'0 0.0
2014-Jul-24 19:33N 37°57' E 023°35'0 0.0
2014-Jul-24 18:33N 37°57' E 023°35'0 0.0
2014-Jul-24 17:33N 37°57' E 023°35'0 0.0
2014-Jul-24 16:33N 37°57' E 023°35'0 0.0
2014-Jul-24 15:33N 37°57' E 023°35'0 0.0
2014-Jul-24 14:33N 37°57' E 023°35'0 0.0
2014-Jul-24 13:33N 37°57' E 023°35'0 0.0
2014-Jul-24 12:33N 37°57' E 023°35'0 0.0
2014-Jul-24 11:33N 37°57' E 023°35'4 4.2
2014-Jul-24 10:33N 37°54' E 023°38'1111.2
2014-Jul-24 09:33N 37°43' E 023°43'5115.9
2014-Jul-24 06:21N 36°53' E 023°35'1617.7
2014-Jul-24 05:28N 36°38' E 023°29'43519.0
2014-Jul-23 06:33N 36°27' E 014°28'1919.4
2014-Jul-23 05:33N 36°32' E 014°05'1919.3
2014-Jul-23 04:33N 36°37' E 013°41'2219.1
2014-Jul-23 03:24N 36°44' E 013°15'41519.0
2014-Jul-22 05:33N 37°20' E 004°37'5919.4
2014-Jul-22 02:29N 37°14' E 003°23'1819.1
2014-Jul-22 01:33N 37°11' E 003°00'1919.7
2014-Jul-22 00:33N 37°07' E 002°36'2019.8
2014-Jul-21 23:32N 37°03' E 002°11'1819.0
2014-Jul-21 22:33N 36°59' E 001°49'1919.3
2014-Jul-21 21:33N 36°56' E 001°25'2019.9
2014-Jul-21 20:33N 36°52' E 001°01'519.8
2014-Jul-21 20:18N 36°50' E 000°55'1419.4
2014-Jul-21 19:33N 36°47' E 000°37'1919.5
2014-Jul-21 18:33N 36°44' E 000°13'1919.2
2014-Jul-21 17:33N 36°41' W 000°11'2019.5
2014-Jul-21 16:32N 36°37' W 000°35'6020.2
2014-Jul-21 13:33N 36°26' W 001°48'17221.3
2014-Jul-21 05:29N 35°59' W 005°19'17220.6
2014-Jul-20 21:07N 36°27' W 008°49'1220.7
2014-Jul-20 20:33N 36°30' W 009°04'2220.4
2014-Jul-20 19:28N 36°42' W 009°26'1920.3
2014-Jul-20 18:32N 37°00' W 009°35'2020.1
2014-Jul-20 17:33N 37°17' W 009°22'2121.1
2014-Jul-20 16:33N 37°33' W 009°05'2120.9
2014-Jul-20 15:33N 37°51' W 008°51'5 4.8
2014-Jul-20 14:33N 37°56' W 008°51'0 0.0
2014-Jul-20 13:33N 37°56' W 008°51'0 0.0
2014-Jul-20 12:33N 37°56' W 008°51'0 0.0
2014-Jul-20 11:33N 37°56' W 008°51'0 0.0
2014-Jul-20 10:33N 37°56' W 008°51'0 0.0
2014-Jul-20 09:33N 37°56' W 008°51'0 0.0
2014-Jul-20 08:33N 37°56' W 008°51'0 0.0
2014-Jul-20 07:33N 37°56' W 008°51'0 0.2
2014-Jul-20 06:33N 37°56' W 008°51'2 1.8
2014-Jul-20 05:33N 37°54' W 008°51'1 0.9
2014-Jul-20 04:33N 37°53' W 008°52'0 0.0
2014-Jul-20 03:33N 37°53' W 008°52'0 0.0
2014-Jul-20 02:33N 37°53' W 008°52'0 0.0
2014-Jul-20 01:33N 37°53' W 008°52'0 0.0
2014-Jul-20 00:33N 37°53' W 008°52'0 0.0
2014-Jul-19 23:33N 37°53' W 008°52'0 0.0
2014-Jul-19 22:33N 37°53' W 008°52'1 1.2
2014-Jul-19 21:33N 37°52' W 008°52'7 7.3
2014-Jul-19 20:33N 37°56' W 009°01'1818.3
2014-Jul-19 19:33N 38°05' W 009°20'1818.0
2014-Jul-19 18:33N 38°16' W 009°39'  
Track history (hours):
 
Tides and Currents Weather Stations Pressure Air Temp Water Temp Dewpoint Dewpoint Depression Visibility Wind Speed Wind Dir Waves Ship Positions

MSC Ludovica

Last reported at 2014-Jul-29 02:29 UTC. Time now 2014-Jul-29 02:44 UTC.
Position N 39°47' E 023°36'.

Length 301 m; draft 9.3 m.

Type: Ship. MMSI: 351248000.

Date/timePositionNaut miles runAvg speedWind from/ knotsBaromVisibWave heightAir tempDewpointWater temp
2014-Jul-29 02:29N 39°47' E 023°36'15 0.5
2014-Jul-27 23:07N 39°42' E 023°54'1220.1
2014-Jul-27 22:32N 39°38' E 024°09'1919.9
2014-Jul-27 21:33N 39°30' E 024°31'2020.2
2014-Jul-27 20:33N 39°21' E 024°55'2720.1
2014-Jul-27 19:13N 39°09' E 025°26'1519.8
2014-Jul-27 18:26N 39°02' E 025°43'  
2014-Jul-25 12:06N 38°45' E 025°54'1720.9
2014-Jul-25 11:17N 38°45' E 025°32'9619.9
2014-Jul-25 06:29N 37°35' E 024°09'1920.6
2014-Jul-25 05:33N 37°37' E 023°45'1818.2
2014-Jul-25 04:33N 37°53' E 023°36'4 0.5
2014-Jul-24 20:33N 37°57' E 023°35'0 0.0
2014-Jul-24 19:33N 37°57' E 023°35'0 0.0
2014-Jul-24 18:33N 37°57' E 023°35'0 0.0
2014-Jul-24 17:33N 37°57' E 023°35'0 0.0
2014-Jul-24 16:33N 37°57' E 023°35'0 0.0
2014-Jul-24 15:33N 37°57' E 023°35'0 0.0
2014-Jul-24 14:33N 37°57' E 023°35'0 0.0
2014-Jul-24 13:33N 37°57' E 023°35'0 0.0
2014-Jul-24 12:33N 37°57' E 023°35'0 0.0
2014-Jul-24 11:33N 37°57' E 023°35'4 4.2
2014-Jul-24 10:33N 37°54' E 023°38'1111.2
2014-Jul-24 09:33N 37°43' E 023°43'5115.9
2014-Jul-24 06:21N 36°53' E 023°35'1617.7
2014-Jul-24 05:28N 36°38' E 023°29'43519.0
2014-Jul-23 06:33N 36°27' E 014°28'1919.4
2014-Jul-23 05:33N 36°32' E 014°05'1919.3
2014-Jul-23 04:33N 36°37' E 013°41'2219.1
2014-Jul-23 03:24N 36°44' E 013°15'41519.0
2014-Jul-22 05:33N 37°20' E 004°37'5919.4
2014-Jul-22 02:29N 37°14' E 003°23'1819.1
2014-Jul-22 01:33N 37°11' E 003°00'1919.7
2014-Jul-22 00:33N 37°07' E 002°36'2019.8
2014-Jul-21 23:32N 37°03' E 002°11'1819.0
2014-Jul-21 22:33N 36°59' E 001°49'1919.3
2014-Jul-21 21:33N 36°56' E 001°25'2019.9
2014-Jul-21 20:33N 36°52' E 001°01'519.8
2014-Jul-21 20:18N 36°50' E 000°55'1419.4
2014-Jul-21 19:33N 36°47' E 000°37'1919.5
2014-Jul-21 18:33N 36°44' E 000°13'1919.2
2014-Jul-21 17:33N 36°41' W 000°11'2019.5
2014-Jul-21 16:32N 36°37' W 000°35'6020.2
2014-Jul-21 13:33N 36°26' W 001°48'17221.3
2014-Jul-21 05:29N 35°59' W 005°19'17220.6
2014-Jul-20 21:07N 36°27' W 008°49'1220.7
2014-Jul-20 20:33N 36°30' W 009°04'2220.4
2014-Jul-20 19:28N 36°42' W 009°26'1920.3
2014-Jul-20 18:32N 37°00' W 009°35'2020.1
2014-Jul-20 17:33N 37°17' W 009°22'2121.1
2014-Jul-20 16:33N 37°33' W 009°05'2120.9
2014-Jul-20 15:33N 37°51' W 008°51'5 4.8
2014-Jul-20 14:33N 37°56' W 008°51'0 0.0
2014-Jul-20 13:33N 37°56' W 008°51'0 0.0
2014-Jul-20 12:33N 37°56' W 008°51'0 0.0
2014-Jul-20 11:33N 37°56' W 008°51'0 0.0
2014-Jul-20 10:33N 37°56' W 008°51'0 0.0
2014-Jul-20 09:33N 37°56' W 008°51'0 0.0
2014-Jul-20 08:33N 37°56' W 008°51'0 0.0
2014-Jul-20 07:33N 37°56' W 008°51'0 0.2
2014-Jul-20 06:33N 37°56' W 008°51'2 1.8
2014-Jul-20 05:33N 37°54' W 008°51'1 0.9
2014-Jul-20 04:33N 37°53' W 008°52'0 0.0
2014-Jul-20 03:33N 37°53' W 008°52'0 0.0
2014-Jul-20 02:33N 37°53' W 008°52'0 0.0
2014-Jul-20 01:33N 37°53' W 008°52'0 0.0
2014-Jul-20 00:33N 37°53' W 008°52'0 0.0
2014-Jul-19 23:33N 37°53' W 008°52'0 0.0
2014-Jul-19 22:33N 37°53' W 008°52'1 1.2
2014-Jul-19 21:33N 37°52' W 008°52'7 7.3
2014-Jul-19 20:33N 37°56' W 009°01'1818.3
2014-Jul-19 19:33N 38°05' W 009°20'1818.0
2014-Jul-19 18:33N 38°16' W 009°39'  

Dump ship's entire track history